sensor_id;sensor_type;location;lat;lon;timestamp;P1;P2;P0
62547;PMS7003;48602;45.192;5.722;2023-04-07T00:00:50;3.75;3.25;3.00
62547;PMS7003;48602;45.192;5.722;2023-04-07T00:03:15;3.25;3.25;3.00
62547;PMS7003;48602;45.192;5.722;2023-04-07T00:05:40;5.00;3.00;3.00
62547;PMS7003;48602;45.192;5.722;2023-04-07T00:08:06;4.50;4.00;3.00
62547;PMS7003;48602;45.192;5.722;2023-04-07T00:10:31;5.50;4.00;3.75
62547;PMS7003;48602;45.192;5.722;2023-04-07T00:12:57;4.50;4.50;3.50
62547;PMS7003;48602;45.192;5.722;2023-04-07T00:15:22;4.00;4.00;3.75
62547;PMS7003;48602;45.192;5.722;2023-04-07T00:17:48;4.75;3.50;2.75
62547;PMS7003;48602;45.192;5.722;2023-04-07T00:20:13;4.00;3.00;3.00
62547;PMS7003;48602;45.192;5.722;2023-04-07T00:22:39;3.75;3.00;2.75
62547;PMS7003;48602;45.192;5.722;2023-04-07T00:25:04;6.50;5.00;4.00
62547;PMS7003;48602;45.192;5.722;2023-04-07T00:27:30;5.50;4.75;3.75
62547;PMS7003;48602;45.192;5.722;2023-04-07T00:29:56;3.75;3.75;3.25
62547;PMS7003;48602;45.192;5.722;2023-04-07T00:32:21;5.00;4.00;4.00
62547;PMS7003;48602;45.192;5.722;2023-04-07T00:34:47;2.75;2.75;2.00
62547;PMS7003;48602;45.192;5.722;2023-04-07T00:37:12;3.00;3.00;3.00
62547;PMS7003;48602;45.192;5.722;2023-04-07T00:39:37;4.00;3.25;3.25
62547;PMS7003;48602;45.192;5.722;2023-04-07T00:42:03;7.25;4.00;3.50
62547;PMS7003;48602;45.192;5.722;2023-04-07T00:44:32;6.00;6.00;5.00
62547;PMS7003;48602;45.192;5.722;2023-04-07T00:46:58;7.33;4.00;3.67
62547;PMS7003;48602;45.192;5.722;2023-04-07T00:49:24;6.67;5.00;4.00
62547;PMS7003;48602;45.192;5.722;2023-04-07T00:51:50;11.00;5.00;4.50
62547;PMS7003;48602;45.192;5.722;2023-04-07T00:54:16;5.00;5.00;4.67
62547;PMS7003;48602;45.192;5.722;2023-04-07T00:56:42;6.67;5.67;4.67
62547;PMS7003;48602;45.192;5.722;2023-04-07T00:59:08;5.00;5.00;4.00
62547;PMS7003;48602;45.192;5.722;2023-04-07T01:01:39;5.00;5.00;4.00
62547;PMS7003;48602;45.192;5.722;2023-04-07T01:07:35;4.75;4.25;4.00
62547;PMS7003;48602;45.192;5.722;2023-04-07T01:10:13;5.33;4.33;4.00
62547;PMS7003;48602;45.192;5.722;2023-04-07T01:12:46;8.33;5.00;3.67
62547;PMS7003;48602;45.192;5.722;2023-04-07T01:15:21;5.67;5.67;5.00
62547;PMS7003;48602;45.192;5.722;2023-04-07T01:17:53;3.00;3.00;3.00
62547;PMS7003;48602;45.192;5.722;2023-04-07T01:20:23;4.67;4.67;4.00
62547;PMS7003;48602;45.192;5.722;2023-04-07T01:22:55;4.00;3.00;3.00
62547;PMS7003;48602;45.192;5.722;2023-04-07T01:28:25;5.00;4.00;3.00
62547;PMS7003;48602;45.192;5.722;2023-04-07T01:31:14;2.00;2.00;2.00
62547;PMS7003;48602;45.192;5.722;2023-04-07T01:33:42;3.67;3.67;3.00
62547;PMS7003;48602;45.192;5.722;2023-04-07T01:36:09;7.00;5.00;4.00
62547;PMS7003;48602;45.192;5.722;2023-04-07T01:38:36;5.67;5.00;4.00
62547;PMS7003;48602;45.192;5.722;2023-04-07T01:41:02;3.75;3.00;3.00
62547;PMS7003;48602;45.192;5.722;2023-04-07T01:43:29;10.00;7.33;5.67
62547;PMS7003;48602;45.192;5.722;2023-04-07T01:45:56;7.00;6.67;5.33
62547;PMS7003;48602;45.192;5.722;2023-04-07T01:48:22;4.67;4.67;4.00
62547;PMS7003;48602;45.192;5.722;2023-04-07T01:50:48;4.00;4.00;4.00
62547;PMS7003;48602;45.192;5.722;2023-04-07T01:53:15;6.00;4.67;3.67
62547;PMS7003;48602;45.192;5.722;2023-04-07T01:55:41;6.00;4.00;3.00
62547;PMS7003;48602;45.192;5.722;2023-04-07T01:58:07;6.33;4.00;3.67
62547;PMS7003;48602;45.192;5.722;2023-04-07T02:00:33;3.00;3.00;3.00
62547;PMS7003;48602;45.192;5.722;2023-04-07T02:03:01;5.00;5.00;4.00
62547;PMS7003;48602;45.192;5.722;2023-04-07T02:05:32;3.50;3.50;3.00
62547;PMS7003;48602;45.192;5.722;2023-04-07T02:08:02;5.00;5.00;4.00
62547;PMS7003;48602;45.192;5.722;2023-04-07T02:10:29;4.33;4.00;3.00
62547;PMS7003;48602;45.192;5.722;2023-04-07T02:12:59;5.00;4.00;3.00
62547;PMS7003;48602;45.192;5.722;2023-04-07T02:15:29;5.33;3.67;3.33
62547;PMS7003;48602;45.192;5.722;2023-04-07T02:17:56;5.00;3.33;3.00
62547;PMS7003;48602;45.192;5.722;2023-04-07T02:20:23;3.33;3.33;3.00
62547;PMS7003;48602;45.192;5.722;2023-04-07T02:22:49;4.67;4.00;4.00
62547;PMS7003;48602;45.192;5.722;2023-04-07T02:25:28;4.00;3.67;3.33
62547;PMS7003;48602;45.192;5.722;2023-04-07T02:27:56;3.00;3.00;3.00
62547;PMS7003;48602;45.192;5.722;2023-04-07T02:30:22;4.00;4.00;3.00
62547;PMS7003;48602;45.192;5.722;2023-04-07T02:32:48;4.67;3.00;2.00
62547;PMS7003;48602;45.192;5.722;2023-04-07T02:35:14;3.00;3.00;3.00
62547;PMS7003;48602;45.192;5.722;2023-04-07T02:37:41;2.33;2.33;2.33
62547;PMS7003;48602;45.192;5.722;2023-04-07T02:40:07;3.00;3.00;3.00
62547;PMS7003;48602;45.192;5.722;2023-04-07T02:42:32;4.00;3.67;3.67
62547;PMS7003;48602;45.192;5.722;2023-04-07T02:44:58;4.00;4.00;3.00
62547;PMS7003;48602;45.192;5.722;2023-04-07T02:47:24;5.67;2.67;2.67
62547;PMS7003;48602;45.192;5.722;2023-04-07T02:49:50;2.00;2.00;1.00
62547;PMS7003;48602;45.192;5.722;2023-04-07T02:52:15;4.33;4.33;3.67
62547;PMS7003;48602;45.192;5.722;2023-04-07T02:54:41;2.67;2.67;2.00
62547;PMS7003;48602;45.192;5.722;2023-04-07T02:57:07;6.00;4.25;3.50
62547;PMS7003;48602;45.192;5.722;2023-04-07T02:59:32;4.67;4.67;4.00
62547;PMS7003;48602;45.192;5.722;2023-04-07T03:01:57;4.67;3.67;3.33
62547;PMS7003;48602;45.192;5.722;2023-04-07T03:04:23;5.00;4.00;3.00
62547;PMS7003;48602;45.192;5.722;2023-04-07T03:06:48;4.67;3.67;3.00
62547;PMS7003;48602;45.192;5.722;2023-04-07T03:09:14;4.00;4.00;3.00
62547;PMS7003;48602;45.192;5.722;2023-04-07T03:11:39;3.00;3.00;2.00
62547;PMS7003;48602;45.192;5.722;2023-04-07T03:14:05;2.33;2.33;1.67
62547;PMS7003;48602;45.192;5.722;2023-04-07T03:16:31;4.33;4.00;3.00
62547;PMS7003;48602;45.192;5.722;2023-04-07T03:18:56;3.00;3.00;3.00
62547;PMS7003;48602;45.192;5.722;2023-04-07T03:21:22;3.00;3.00;3.00
62547;PMS7003;48602;45.192;5.722;2023-04-07T03:23:47;4.00;3.00;3.00
62547;PMS7003;48602;45.192;5.722;2023-04-07T03:26:12;3.00;3.00;3.00
62547;PMS7003;48602;45.192;5.722;2023-04-07T03:28:38;4.67;3.00;3.00
62547;PMS7003;48602;45.192;5.722;2023-04-07T03:31:03;4.00;3.67;3.00
62547;PMS7003;48602;45.192;5.722;2023-04-07T03:33:29;4.33;4.00;4.00
62547;PMS7003;48602;45.192;5.722;2023-04-07T03:35:54;10.00;10.00;9.00
62547;PMS7003;48602;45.192;5.722;2023-04-07T03:38:20;4.33;4.00;4.00
62547;PMS7003;48602;45.192;5.722;2023-04-07T03:40:45;3.67;3.67;3.67
62547;PMS7003;48602;45.192;5.722;2023-04-07T03:43:11;2.00;2.00;2.00
62547;PMS7003;48602;45.192;5.722;2023-04-07T03:45:39;6.67;3.00;2.00
62547;PMS7003;48602;45.192;5.722;2023-04-07T03:48:05;3.67;2.67;2.00
62547;PMS7003;48602;45.192;5.722;2023-04-07T03:50:34;4.00;2.67;2.00
62547;PMS7003;48602;45.192;5.722;2023-04-07T03:53:00;2.00;2.00;2.00
62547;PMS7003;48602;45.192;5.722;2023-04-07T03:55:25;5.00;3.00;3.00
62547;PMS7003;48602;45.192;5.722;2023-04-07T03:57:51;0.00;0.00;0.00
62547;PMS7003;48602;45.192;5.722;2023-04-07T04:00:17;2.50;2.50;2.00
62547;PMS7003;48602;45.192;5.722;2023-04-07T04:02:42;2.67;2.67;2.67
62547;PMS7003;48602;45.192;5.722;2023-04-07T04:05:08;3.00;3.00;2.67
62547;PMS7003;48602;45.192;5.722;2023-04-07T04:07:33;6.33;3.00;2.00
62547;PMS7003;48602;45.192;5.722;2023-04-07T04:09:59;8.33;4.33;3.33
62547;PMS7003;48602;45.192;5.722;2023-04-07T04:12:25;3.00;3.00;2.00
62547;PMS7003;48602;45.192;5.722;2023-04-07T04:14:51;6.00;4.00;3.67
62547;PMS7003;48602;45.192;5.722;2023-04-07T04:17:17;4.33;4.00;3.33
62547;PMS7003;48602;45.192;5.722;2023-04-07T04:19:42;4.00;4.00;3.00
62547;PMS7003;48602;45.192;5.722;2023-04-07T04:22:07;4.00;4.00;3.00
62547;PMS7003;48602;45.192;5.722;2023-04-07T04:24:33;3.67;3.67;3.33
62547;PMS7003;48602;45.192;5.722;2023-04-07T04:26:59;4.00;4.00;3.33
62547;PMS7003;48602;45.192;5.722;2023-04-07T04:29:26;3.33;3.33;3.33
62547;PMS7003;48602;45.192;5.722;2023-04-07T04:31:51;3.00;3.00;3.00
62547;PMS7003;48602;45.192;5.722;2023-04-07T04:34:17;6.67;3.00;2.00
62547;PMS7003;48602;45.192;5.722;2023-04-07T04:36:42;4.67;3.00;2.33
62547;PMS7003;48602;45.192;5.722;2023-04-07T04:39:08;4.00;4.00;4.00
62547;PMS7003;48602;45.192;5.722;2023-04-07T04:41:33;5.00;3.00;3.00
62547;PMS7003;48602;45.192;5.722;2023-04-07T04:43:58;3.33;3.33;3.00
62547;PMS7003;48602;45.192;5.722;2023-04-07T04:46:24;4.00;4.00;4.00
62547;PMS7003;48602;45.192;5.722;2023-04-07T04:48:50;5.33;5.00;4.00
62547;PMS7003;48602;45.192;5.722;2023-04-07T04:51:16;7.00;4.33;4.00
62547;PMS7003;48602;45.192;5.722;2023-04-07T04:53:42;4.67;4.67;4.67
62547;PMS7003;48602;45.192;5.722;2023-04-07T04:56:07;4.00;4.00;4.00
62547;PMS7003;48602;45.192;5.722;2023-04-07T04:58:33;4.00;2.00;2.00
62547;PMS7003;48602;45.192;5.722;2023-04-07T05:00:59;3.00;3.00;2.00
62547;PMS7003;48602;45.192;5.722;2023-04-07T05:03:25;3.00;3.00;3.00
62547;PMS7003;48602;45.192;5.722;2023-04-07T05:05:52;2.00;2.00;2.00
62547;PMS7003;48602;45.192;5.722;2023-04-07T05:08:17;5.67;4.00;3.33
62547;PMS7003;48602;45.192;5.722;2023-04-07T05:10:43;3.00;2.67;2.67
62547;PMS7003;48602;45.192;5.722;2023-04-07T05:13:08;3.00;3.00;3.00
62547;PMS7003;48602;45.192;5.722;2023-04-07T05:15:33;9.25;4.75;3.00
62547;PMS7003;48602;45.192;5.722;2023-04-07T05:17:59;4.00;2.67;2.33
62547;PMS7003;48602;45.192;5.722;2023-04-07T05:20:25;2.25;2.00;2.00
62547;PMS7003;48602;45.192;5.722;2023-04-07T05:22:50;2.00;1.75;1.50
62547;PMS7003;48602;45.192;5.722;2023-04-07T05:25:15;4.33;3.00;3.00
62547;PMS7003;48602;45.192;5.722;2023-04-07T05:27:41;3.67;3.67;3.00
62547;PMS7003;48602;45.192;5.722;2023-04-07T05:30:07;4.00;4.00;3.33
62547;PMS7003;48602;45.192;5.722;2023-04-07T05:32:32;3.00;3.00;3.00
62547;PMS7003;48602;45.192;5.722;2023-04-07T05:34:58;4.00;3.00;3.00
62547;PMS7003;48602;45.192;5.722;2023-04-07T05:37:23;3.67;3.00;3.00
62547;PMS7003;48602;45.192;5.722;2023-04-07T05:39:49;6.00;6.00;5.00
62547;PMS7003;48602;45.192;5.722;2023-04-07T05:42:14;5.00;5.00;4.00
62547;PMS7003;48602;45.192;5.722;2023-04-07T05:44:39;4.33;4.00;4.00
62547;PMS7003;48602;45.192;5.722;2023-04-07T05:47:05;6.67;4.67;4.67
62547;PMS7003;48602;45.192;5.722;2023-04-07T05:49:35;6.33;5.00;5.00
62547;PMS7003;48602;45.192;5.722;2023-04-07T05:52:01;4.00;4.00;3.67
62547;PMS7003;48602;45.192;5.722;2023-04-07T05:54:28;4.00;2.67;2.00
62547;PMS7003;48602;45.192;5.722;2023-04-07T05:56:53;5.67;4.00;3.00
62547;PMS7003;48602;45.192;5.722;2023-04-07T05:59:19;3.75;3.25;3.00
62547;PMS7003;48602;45.192;5.722;2023-04-07T06:01:44;2.25;2.00;2.00
62547;PMS7003;48602;45.192;5.722;2023-04-07T06:04:09;4.33;3.00;3.00
62547;PMS7003;48602;45.192;5.722;2023-04-07T06:06:35;6.33;4.00;3.00
62547;PMS7003;48602;45.192;5.722;2023-04-07T06:09:00;4.00;2.00;2.00
62547;PMS7003;48602;45.192;5.722;2023-04-07T06:11:26;3.67;3.67;3.00
62547;PMS7003;48602;45.192;5.722;2023-04-07T06:13:51;2.00;2.00;1.75
62547;PMS7003;48602;45.192;5.722;2023-04-07T06:16:17;3.00;3.00;3.00
62547;PMS7003;48602;45.192;5.722;2023-04-07T06:18:42;2.67;2.67;2.00
62547;PMS7003;48602;45.192;5.722;2023-04-07T06:21:08;2.00;2.00;1.00
62547;PMS7003;48602;45.192;5.722;2023-04-07T06:23:33;3.75;3.00;3.00
62547;PMS7003;48602;45.192;5.722;2023-04-07T06:25:59;4.00;3.00;3.00
62547;PMS7003;48602;45.192;5.722;2023-04-07T06:28:25;4.00;3.00;2.75
62547;PMS7003;48602;45.192;5.722;2023-04-07T06:30:54;5.75;3.00;3.00
62547;PMS7003;48602;45.192;5.722;2023-04-07T06:33:19;3.00;3.00;2.33
62547;PMS7003;48602;45.192;5.722;2023-04-07T06:35:52;4.00;4.00;4.00
62547;PMS7003;48602;45.192;5.722;2023-04-07T06:38:18;3.00;3.00;3.00
62547;PMS7003;48602;45.192;5.722;2023-04-07T06:40:44;4.25;3.00;3.00
62547;PMS7003;48602;45.192;5.722;2023-04-07T06:43:10;5.00;4.33;4.00
62547;PMS7003;48602;45.192;5.722;2023-04-07T06:45:35;4.00;2.75;2.00
62547;PMS7003;48602;45.192;5.722;2023-04-07T06:48:01;4.25;2.25;2.00
62547;PMS7003;48602;45.192;5.722;2023-04-07T06:50:26;5.00;4.00;3.00
62547;PMS7003;48602;45.192;5.722;2023-04-07T06:52:52;4.00;4.00;3.50
62547;PMS7003;48602;45.192;5.722;2023-04-07T06:55:17;3.00;3.00;3.00
62547;PMS7003;48602;45.192;5.722;2023-04-07T06:57:42;4.00;4.00;3.00
62547;PMS7003;48602;45.192;5.722;2023-04-07T07:00:08;9.50;5.25;4.25
62547;PMS7003;48602;45.192;5.722;2023-04-07T07:02:34;6.00;6.00;5.00
62547;PMS7003;48602;45.192;5.722;2023-04-07T07:05:00;4.50;2.25;2.00
62547;PMS7003;48602;45.192;5.722;2023-04-07T07:07:26;8.00;8.00;6.00
62547;PMS7003;48602;45.192;5.722;2023-04-07T07:09:52;6.00;5.33;4.00
62547;PMS7003;48602;45.192;5.722;2023-04-07T07:12:18;5.00;5.00;4.67
62547;PMS7003;48602;45.192;5.722;2023-04-07T07:14:43;9.33;6.00;5.00
62547;PMS7003;48602;45.192;5.722;2023-04-07T07:17:08;9.50;7.50;5.75
62547;PMS7003;48602;45.192;5.722;2023-04-07T07:19:34;6.50;5.50;4.25
62547;PMS7003;48602;45.192;5.722;2023-04-07T07:22:00;7.25;6.00;5.00
62547;PMS7003;48602;45.192;5.722;2023-04-07T07:24:25;2.00;0.00;0.00
62547;PMS7003;48602;45.192;5.722;2023-04-07T07:26:51;4.00;4.00;4.00
62547;PMS7003;48602;45.192;5.722;2023-04-07T07:29:16;6.25;5.00;4.25
62547;PMS7003;48602;45.192;5.722;2023-04-07T07:31:41;6.25;4.50;3.00
62547;PMS7003;48602;45.192;5.722;2023-04-07T07:34:07;7.00;5.00;4.25
62547;PMS7003;48602;45.192;5.722;2023-04-07T07:36:33;5.00;5.00;4.00
62547;PMS7003;48602;45.192;5.722;2023-04-07T07:38:58;7.00;5.00;4.00
62547;PMS7003;48602;45.192;5.722;2023-04-07T07:41:24;7.75;7.00;5.00
62547;PMS7003;48602;45.192;5.722;2023-04-07T07:43:50;10.00;8.33;6.67
62547;PMS7003;48602;45.192;5.722;2023-04-07T07:46:15;8.67;8.33;7.00
62547;PMS7003;48602;45.192;5.722;2023-04-07T07:48:41;11.00;7.00;6.00
62547;PMS7003;48602;45.192;5.722;2023-04-07T07:51:06;13.00;10.67;7.00
62547;PMS7003;48602;45.192;5.722;2023-04-07T07:53:31;12.75;11.50;7.00
62547;PMS7003;48602;45.192;5.722;2023-04-07T07:55:57;15.25;12.25;8.50
62547;PMS7003;48602;45.192;5.722;2023-04-07T07:58:22;12.25;11.00;7.50
62547;PMS7003;48602;45.192;5.722;2023-04-07T08:00:48;9.50;9.25;7.25
62547;PMS7003;48602;45.192;5.722;2023-04-07T08:03:13;6.75;5.25;4.25
62547;PMS7003;48602;45.192;5.722;2023-04-07T08:05:43;12.00;11.00;8.67
62547;PMS7003;48602;45.192;5.722;2023-04-07T08:08:08;13.67;13.00;10.00
62547;PMS7003;48602;45.192;5.722;2023-04-07T08:10:34;11.33;10.00;7.33
62547;PMS7003;48602;45.192;5.722;2023-04-07T08:13:00;11.00;11.00;8.00
62547;PMS7003;48602;45.192;5.722;2023-04-07T08:15:25;11.67;10.00;7.00
62547;PMS7003;48602;45.192;5.722;2023-04-07T08:17:51;12.33;12.00;11.00
62547;PMS7003;48602;45.192;5.722;2023-04-07T08:20:16;14.00;10.33;7.00
62547;PMS7003;48602;45.192;5.722;2023-04-07T08:22:42;12.33;9.00;6.00
62547;PMS7003;48602;45.192;5.722;2023-04-07T08:25:07;11.00;9.00;6.25
62547;PMS7003;48602;45.192;5.722;2023-04-07T08:27:32;11.25;10.50;9.25
62547;PMS7003;48602;45.192;5.722;2023-04-07T08:30:02;10.67;6.67;5.00
62547;PMS7003;48602;45.192;5.722;2023-04-07T08:32:48;11.67;10.00;8.67
62547;PMS7003;48602;45.192;5.722;2023-04-07T08:35:13;14.33;12.00;10.00
62547;PMS7003;48602;45.192;5.722;2023-04-07T08:37:39;14.00;11.33;9.67
62547;PMS7003;48602;45.192;5.722;2023-04-07T08:40:06;17.67;16.67;13.00
62547;PMS7003;48602;45.192;5.722;2023-04-07T08:42:32;13.33;12.67;11.00
62547;PMS7003;48602;45.192;5.722;2023-04-07T08:45:02;11.67;9.33;8.67
62547;PMS7003;48602;45.192;5.722;2023-04-07T08:47:30;10.67;9.67;7.00
62547;PMS7003;48602;45.192;5.722;2023-04-07T08:50:01;7.00;7.00;5.67
62547;PMS7003;48602;45.192;5.722;2023-04-07T08:52:33;12.00;11.67;10.00
62547;PMS7003;48602;45.192;5.722;2023-04-07T08:55:08;11.67;11.00;9.33
62547;PMS7003;48602;45.192;5.722;2023-04-07T08:57:36;11.67;10.33;7.00
62547;PMS7003;48602;45.192;5.722;2023-04-07T09:00:06;12.67;12.67;10.33
62547;PMS7003;48602;45.192;5.722;2023-04-07T09:02:35;16.33;15.33;12.00
62547;PMS7003;48602;45.192;5.722;2023-04-07T09:05:02;21.67;19.00;13.67
62547;PMS7003;48602;45.192;5.722;2023-04-07T09:07:30;21.67;18.00;13.00
62547;PMS7003;48602;45.192;5.722;2023-04-07T09:09:59;16.00;14.00;11.33
62547;PMS7003;48602;45.192;5.722;2023-04-07T09:12:28;23.33;22.33;17.00
62547;PMS7003;48602;45.192;5.722;2023-04-07T09:14:55;12.00;10.67;9.67
62547;PMS7003;48602;45.192;5.722;2023-04-07T09:17:26;13.33;12.00;10.00
62547;PMS7003;48602;45.192;5.722;2023-04-07T09:19:56;14.33;12.33;10.33
62547;PMS7003;48602;45.192;5.722;2023-04-07T09:28:03;11.67;11.67;9.33
62547;PMS7003;48602;45.192;5.722;2023-04-07T09:30:28;13.00;12.00;9.00
62547;PMS7003;48602;45.192;5.722;2023-04-07T09:32:55;13.00;9.67;7.00
62547;PMS7003;48602;45.192;5.722;2023-04-07T09:35:21;18.00;12.00;8.33
62547;PMS7003;48602;45.192;5.722;2023-04-07T09:38:04;14.33;12.67;11.00
62547;PMS7003;48602;45.192;5.722;2023-04-07T09:40:31;15.00;15.00;12.00
62547;PMS7003;48602;45.192;5.722;2023-04-07T09:42:57;11.75;11.75;8.25
62547;PMS7003;48602;45.192;5.722;2023-04-07T09:45:24;12.75;12.25;10.50
62547;PMS7003;48602;45.192;5.722;2023-04-07T09:47:51;14.67;14.33;11.67
62547;PMS7003;48602;45.192;5.722;2023-04-07T09:50:39;16.67;12.33;11.00
62547;PMS7003;48602;45.192;5.722;2023-04-07T09:53:05;13.67;13.67;11.00
62547;PMS7003;48602;45.192;5.722;2023-04-07T09:55:31;15.33;13.33;11.33
62547;PMS7003;48602;45.192;5.722;2023-04-07T09:57:57;13.33;12.33;11.33
62547;PMS7003;48602;45.192;5.722;2023-04-07T10:00:24;14.67;13.00;9.67
62547;PMS7003;48602;45.192;5.722;2023-04-07T10:02:50;14.25;13.00;9.50
62547;PMS7003;48602;45.192;5.722;2023-04-07T10:05:17;16.33;12.67;8.33
62547;PMS7003;48602;45.192;5.722;2023-04-07T10:07:45;10.00;10.00;8.00
62547;PMS7003;48602;45.192;5.722;2023-04-07T10:10:11;14.33;12.67;10.33
62547;PMS7003;48602;45.192;5.722;2023-04-07T10:12:37;12.50;12.25;9.25
62547;PMS7003;48602;45.192;5.722;2023-04-07T10:15:03;13.75;12.00;10.25
62547;PMS7003;48602;45.192;5.722;2023-04-07T10:17:32;11.25;9.50;8.25
62547;PMS7003;48602;45.192;5.722;2023-04-07T10:20:00;12.75;10.25;7.00
62547;PMS7003;48602;45.192;5.722;2023-04-07T10:22:26;14.75;10.50;8.25
62547;PMS7003;48602;45.192;5.722;2023-04-07T10:27:30;2.00;1.00;1.00
62547;PMS7003;48602;45.192;5.722;2023-04-07T10:29:59;9.50;9.50;8.00
62547;PMS7003;48602;45.192;5.722;2023-04-07T10:32:28;15.33;14.33;11.33
62547;PMS7003;48602;45.192;5.722;2023-04-07T10:37:20;15.00;14.33;10.67
62547;PMS7003;48602;45.192;5.722;2023-04-07T10:39:47;12.67;11.33;9.00
62547;PMS7003;48602;45.192;5.722;2023-04-07T10:45:03;14.00;14.00;11.00
62547;PMS7003;48602;45.192;5.722;2023-04-07T10:47:30;11.00;10.75;8.00
62547;PMS7003;48602;45.192;5.722;2023-04-07T10:52:42;12.00;10.50;9.00
62547;PMS7003;48602;45.192;5.722;2023-04-07T11:03:37;13.50;13.00;9.75
62547;PMS7003;48602;45.192;5.722;2023-04-07T11:06:03;15.00;12.25;9.25
62547;PMS7003;48602;45.192;5.722;2023-04-07T11:08:39;10.00;9.25;8.00
62547;PMS7003;48602;45.192;5.722;2023-04-07T11:11:07;17.75;12.50;11.00
62547;PMS7003;48602;45.192;5.722;2023-04-07T11:13:40;12.75;10.75;9.75
62547;PMS7003;48602;45.192;5.722;2023-04-07T11:16:09;9.25;9.00;6.25
62547;PMS7003;48602;45.192;5.722;2023-04-07T11:18:57;8.75;8.00;6.00
62547;PMS7003;48602;45.192;5.722;2023-04-07T11:21:23;8.75;7.50;6.50
62547;PMS7003;48602;45.192;5.722;2023-04-07T11:23:48;11.00;8.00;7.00
62547;PMS7003;48602;45.192;5.722;2023-04-07T11:26:14;8.25;6.75;5.00
62547;PMS7003;48602;45.192;5.722;2023-04-07T11:28:46;4.75;4.75;4.75
62547;PMS7003;48602;45.192;5.722;2023-04-07T11:36:28;10.25;8.00;6.00
62547;PMS7003;48602;45.192;5.722;2023-04-07T11:38:56;10.50;9.75;7.50
62547;PMS7003;48602;45.192;5.722;2023-04-07T11:41:22;7.00;7.00;6.00
62547;PMS7003;48602;45.192;5.722;2023-04-07T11:43:48;9.50;9.25;9.00
62547;PMS7003;48602;45.192;5.722;2023-04-07T11:46:28;10.00;10.00;9.00
62547;PMS7003;48602;45.192;5.722;2023-04-07T11:48:53;15.75;14.75;11.50
62547;PMS7003;48602;45.192;5.722;2023-04-07T11:51:19;8.00;6.50;5.25
62547;PMS7003;48602;45.192;5.722;2023-04-07T11:53:52;24.00;20.33;16.33
62547;PMS7003;48602;45.192;5.722;2023-04-07T11:56:19;9.25;9.00;8.00
62547;PMS7003;48602;45.192;5.722;2023-04-07T11:58:46;12.50;12.00;10.50
62547;PMS7003;48602;45.192;5.722;2023-04-07T12:01:13;11.50;11.00;9.00
62547;PMS7003;48602;45.192;5.722;2023-04-07T12:03:53;11.00;8.75;7.00
62547;PMS7003;48602;45.192;5.722;2023-04-07T12:06:31;12.50;10.00;9.00
62547;PMS7003;48602;45.192;5.722;2023-04-07T12:09:01;11.00;9.75;8.50
62547;PMS7003;48602;45.192;5.722;2023-04-07T12:11:28;10.75;9.50;8.50
62547;PMS7003;48602;45.192;5.722;2023-04-07T12:13:54;10.50;9.75;7.25
62547;PMS7003;48602;45.192;5.722;2023-04-07T12:16:20;10.00;10.00;8.50
62547;PMS7003;48602;45.192;5.722;2023-04-07T12:18:46;9.75;8.00;7.00
62547;PMS7003;48602;45.192;5.722;2023-04-07T12:21:11;10.50;9.25;7.50
62547;PMS7003;48602;45.192;5.722;2023-04-07T12:23:36;11.50;10.00;9.25
62547;PMS7003;48602;45.192;5.722;2023-04-07T12:26:02;10.00;10.00;7.25
62547;PMS7003;48602;45.192;5.722;2023-04-07T12:28:27;10.75;8.50;7.25
62547;PMS7003;48602;45.192;5.722;2023-04-07T12:30:53;9.25;9.25;8.00
62547;PMS7003;48602;45.192;5.722;2023-04-07T12:33:19;9.25;9.25;8.25
62547;PMS7003;48602;45.192;5.722;2023-04-07T12:35:45;10.50;9.00;7.00
62547;PMS7003;48602;45.192;5.722;2023-04-07T12:38:10;9.25;6.75;6.00
62547;PMS7003;48602;45.192;5.722;2023-04-07T12:40:36;5.25;5.25;4.00
62547;PMS7003;48602;45.192;5.722;2023-04-07T12:43:02;7.75;6.00;5.50
62547;PMS7003;48602;45.192;5.722;2023-04-07T12:45:28;7.25;7.25;6.50
62547;PMS7003;48602;45.192;5.722;2023-04-07T12:47:55;8.25;6.75;6.00
62547;PMS7003;48602;45.192;5.722;2023-04-07T12:50:21;8.50;7.00;6.00
62547;PMS7003;48602;45.192;5.722;2023-04-07T12:52:47;7.00;7.00;6.50
62547;PMS7003;48602;45.192;5.722;2023-04-07T12:55:12;8.00;7.00;6.00
62547;PMS7003;48602;45.192;5.722;2023-04-07T12:57:38;7.75;6.00;5.75
62547;PMS7003;48602;45.192;5.722;2023-04-07T13:00:04;7.50;6.50;5.50
62547;PMS7003;48602;45.192;5.722;2023-04-07T13:02:30;6.00;5.00;4.00
62547;PMS7003;48602;45.192;5.722;2023-04-07T13:04:55;6.00;6.00;4.75
62547;PMS7003;48602;45.192;5.722;2023-04-07T13:07:21;6.00;5.00;5.00
62547;PMS7003;48602;45.192;5.722;2023-04-07T13:09:46;6.00;6.00;5.00
62547;PMS7003;48602;45.192;5.722;2023-04-07T13:12:12;6.75;6.75;6.25
62547;PMS7003;48602;45.192;5.722;2023-04-07T13:14:38;6.50;6.50;5.00
62547;PMS7003;48602;45.192;5.722;2023-04-07T13:17:04;7.50;5.50;5.25
62547;PMS7003;48602;45.192;5.722;2023-04-07T13:19:30;3.50;3.25;3.00
62547;PMS7003;48602;45.192;5.722;2023-04-07T13:21:56;5.00;5.00;4.00
62547;PMS7003;48602;45.192;5.722;2023-04-07T13:24:21;3.75;2.25;2.00
62547;PMS7003;48602;45.192;5.722;2023-04-07T13:26:47;6.00;4.50;4.00
62547;PMS7003;48602;45.192;5.722;2023-04-07T13:29:13;4.00;4.00;3.50
62547;PMS7003;48602;45.192;5.722;2023-04-07T13:31:38;5.00;5.00;4.00
62547;PMS7003;48602;45.192;5.722;2023-04-07T13:34:03;4.00;3.00;3.00
62547;PMS7003;48602;45.192;5.722;2023-04-07T13:36:29;3.50;2.75;2.50
62547;PMS7003;48602;45.192;5.722;2023-04-07T13:38:55;1.25;1.25;1.25
62547;PMS7003;48602;45.192;5.722;2023-04-07T13:41:21;1.00;1.00;1.00
62547;PMS7003;48602;45.192;5.722;2023-04-07T13:43:47;1.80;1.80;1.80
62547;PMS7003;48602;45.192;5.722;2023-04-07T13:46:12;1.75;1.75;1.75
62547;PMS7003;48602;45.192;5.722;2023-04-07T13:48:42;3.00;1.00;1.00
62547;PMS7003;48602;45.192;5.722;2023-04-07T13:51:10;1.50;1.50;1.00
62547;PMS7003;48602;45.192;5.722;2023-04-07T13:53:36;1.00;1.00;1.00
62547;PMS7003;48602;45.192;5.722;2023-04-07T13:56:02;5.00;3.00;2.50
62547;PMS7003;48602;45.192;5.722;2023-04-07T13:58:28;2.50;2.50;2.00
62547;PMS7003;48602;45.192;5.722;2023-04-07T14:00:53;2.25;2.25;2.00
62547;PMS7003;48602;45.192;5.722;2023-04-07T14:03:20;5.00;3.00;3.00
62547;PMS7003;48602;45.192;5.722;2023-04-07T14:05:46;1.25;1.25;1.00
62547;PMS7003;48602;45.192;5.722;2023-04-07T14:08:12;7.25;5.50;4.75
62547;PMS7003;48602;45.192;5.722;2023-04-07T14:10:38;2.50;2.50;2.50
62547;PMS7003;48602;45.192;5.722;2023-04-07T14:13:03;2.00;2.00;2.00
62547;PMS7003;48602;45.192;5.722;2023-04-07T14:15:29;4.00;4.00;3.00
62547;PMS7003;48602;45.192;5.722;2023-04-07T14:17:55;2.00;2.00;2.00
62547;PMS7003;48602;45.192;5.722;2023-04-07T14:20:23;5.00;3.00;2.75
62547;PMS7003;48602;45.192;5.722;2023-04-07T14:22:49;4.00;4.00;3.75
62547;PMS7003;48602;45.192;5.722;2023-04-07T14:25:15;11.00;8.75;8.00
62547;PMS7003;48602;45.192;5.722;2023-04-07T14:27:40;6.00;5.00;4.75
62547;PMS7003;48602;45.192;5.722;2023-04-07T14:30:08;4.75;4.75;3.75
62547;PMS7003;48602;45.192;5.722;2023-04-07T14:32:34;3.50;3.50;3.25
62547;PMS7003;48602;45.192;5.722;2023-04-07T14:35:00;4.00;4.00;4.00
62547;PMS7003;48602;45.192;5.722;2023-04-07T14:37:26;4.50;3.75;3.25
62547;PMS7003;48602;45.192;5.722;2023-04-07T14:39:52;4.75;3.00;2.75
62547;PMS7003;48602;45.192;5.722;2023-04-07T14:42:18;2.00;2.00;2.00
62547;PMS7003;48602;45.192;5.722;2023-04-07T14:44:44;6.00;4.75;4.00
62547;PMS7003;48602;45.192;5.722;2023-04-07T14:47:10;2.00;2.00;2.00
62547;PMS7003;48602;45.192;5.722;2023-04-07T14:49:36;3.00;1.00;1.00